createdAt,value
2022-07-27T00:01:40.155Z,9.10
2022-07-27T00:04:10.930Z,9.00
2022-07-27T00:06:37.604Z,9.50
2022-07-27T00:09:04.326Z,8.75
2022-07-27T00:11:31.244Z,8.77
2022-07-27T00:13:57.873Z,9.88
2022-07-27T00:16:24.413Z,8.90
2022-07-27T00:18:50.867Z,9.38
2022-07-27T00:21:17.393Z,9.55
2022-07-27T00:23:43.978Z,9.20
2022-07-27T00:26:10.459Z,8.70
2022-07-27T00:28:36.973Z,9.95
2022-07-27T00:31:03.582Z,8.95
2022-07-27T00:33:30.169Z,9.48
2022-07-27T00:35:56.602Z,8.98
2022-07-27T00:38:23.084Z,8.93
2022-07-27T00:40:49.534Z,9.68
2022-07-27T00:43:16.070Z,9.57
2022-07-27T00:45:42.495Z,9.63
2022-07-27T00:48:08.951Z,9.38
2022-07-27T00:50:35.986Z,9.63
2022-07-27T00:53:04.924Z,9.10
2022-07-27T00:55:33.043Z,8.90
2022-07-27T00:58:00.747Z,9.30
2022-07-27T01:00:28.660Z,9.15
2022-07-27T01:02:57.057Z,9.00
2022-07-27T01:05:24.377Z,9.43
2022-07-27T01:08:03.232Z,8.60
2022-07-27T01:10:29.710Z,8.63
2022-07-27T01:12:56.525Z,8.73
2022-07-27T01:15:22.976Z,8.95
2022-07-27T01:17:49.589Z,8.77
2022-07-27T01:20:16.100Z,9.32
2022-07-27T01:22:42.767Z,8.55
2022-07-27T01:25:10.101Z,9.15
2022-07-27T01:27:37.077Z,9.32
2022-07-27T01:30:24.861Z,9.30
2022-07-27T01:32:51.518Z,8.57
2022-07-27T01:35:18.106Z,9.00
2022-07-27T01:37:46.102Z,9.38
2022-07-27T01:42:41.490Z,8.48
2022-07-27T01:45:08.820Z,8.75
2022-07-27T01:47:38.093Z,8.57
2022-07-27T01:50:05.490Z,8.85
2022-07-27T01:52:31.924Z,8.73
2022-07-27T01:54:58.421Z,9.50
2022-07-27T01:57:24.834Z,8.98
2022-07-27T01:59:52.715Z,8.50
2022-07-27T02:02:19.320Z,8.70
2022-07-27T02:04:46.054Z,8.40
2022-07-27T02:07:12.543Z,8.75
2022-07-27T02:09:38.992Z,8.73
2022-07-27T02:12:24.546Z,8.80
2022-07-27T02:14:50.945Z,9.02
2022-07-27T02:17:17.480Z,8.85
2022-07-27T02:19:45.250Z,8.75
2022-07-27T02:22:11.795Z,8.70
2022-07-27T02:24:38.232Z,8.50
2022-07-27T02:27:05.054Z,8.48
2022-07-27T02:29:31.578Z,8.57
2022-07-27T02:31:58.097Z,9.25
2022-07-27T02:34:24.538Z,8.55
2022-07-27T02:36:50.978Z,9.18
2022-07-27T02:39:17.395Z,9.35
2022-07-27T02:41:46.402Z,8.90
2022-07-27T02:44:14.580Z,8.82
2022-07-27T02:46:41.475Z,8.80
2022-07-27T02:49:08.456Z,8.85
2022-07-27T02:51:36.215Z,8.48
2022-07-27T02:54:06.095Z,9.40
2022-07-27T02:56:32.614Z,8.82
2022-07-27T02:58:59.085Z,9.48
2022-07-27T03:01:25.782Z,9.20
2022-07-27T03:03:52.559Z,8.80
2022-07-27T03:06:19.140Z,9.55
2022-07-27T03:08:45.777Z,8.90
2022-07-27T03:11:12.281Z,9.25
2022-07-27T03:13:38.714Z,9.52
2022-07-27T03:16:06.157Z,9.23
2022-07-27T03:18:32.818Z,9.73
2022-07-27T03:20:59.301Z,9.60
2022-07-27T03:23:25.888Z,9.02
2022-07-27T03:25:52.491Z,9.40
2022-07-27T03:28:18.901Z,9.13
2022-07-27T03:30:45.600Z,9.57
2022-07-27T03:33:12.134Z,9.75
2022-07-27T03:35:38.539Z,9.30
2022-07-27T03:38:05.271Z,9.35
2022-07-27T03:40:33.487Z,9.60
2022-07-27T03:43:00.369Z,8.80
2022-07-27T03:45:27.555Z,8.80
2022-07-27T03:47:54.089Z,9.43
2022-07-27T03:50:20.915Z,8.77
2022-07-27T03:52:47.379Z,8.45
2022-07-27T03:55:14.068Z,9.18
2022-07-27T03:57:40.690Z,8.70
2022-07-27T04:00:10.935Z,9.35
2022-07-27T04:05:04.129Z,8.75
2022-07-27T04:07:30.730Z,8.70
2022-07-27T04:09:57.153Z,9.23
2022-07-27T04:12:23.972Z,9.07
2022-07-27T04:14:51.474Z,9.40
2022-07-27T04:17:53.356Z,8.90
2022-07-27T04:20:04.944Z,9.25
2022-07-27T04:22:31.422Z,9.18
2022-07-27T04:24:57.944Z,8.73
2022-07-27T04:27:25.368Z,9.65
2022-07-27T04:29:51.857Z,9.43
2022-07-27T04:32:18.400Z,8.77
2022-07-27T04:34:44.887Z,8.73
2022-07-27T04:37:11.303Z,9.13
2022-07-27T04:39:37.771Z,9.50
2022-07-27T04:42:04.282Z,9.52
2022-07-27T04:44:30.741Z,8.90
2022-07-27T04:46:57.205Z,8.80
2022-07-27T04:49:23.673Z,8.73
2022-07-27T04:51:50.235Z,8.32
2022-07-27T04:54:16.876Z,8.40
2022-07-27T04:56:43.387Z,8.88
2022-07-27T04:59:10.278Z,8.95
2022-07-27T05:01:36.928Z,8.98
2022-07-27T05:04:05.380Z,9.30
2022-07-27T05:06:32.998Z,9.02
2022-07-27T05:09:00.083Z,9.05
2022-07-27T05:11:26.693Z,9.93
2022-07-27T05:13:53.168Z,9.55
2022-07-27T05:16:19.866Z,9.10
2022-07-27T05:18:46.397Z,9.20
2022-07-27T05:21:12.792Z,8.88
2022-07-27T05:23:39.372Z,9.10
2022-07-27T05:26:05.906Z,8.45
2022-07-27T05:28:32.456Z,9.82
2022-07-27T05:30:59.091Z,9.60
2022-07-27T05:33:25.717Z,9.18
2022-07-27T05:35:52.198Z,9.63
2022-07-27T05:38:18.657Z,9.23
2022-07-27T05:40:46.267Z,8.98
2022-07-27T05:43:12.725Z,9.40
2022-07-27T05:45:39.579Z,8.90
2022-07-27T05:48:06.316Z,9.73
2022-07-27T05:50:32.757Z,9.35
2022-07-27T05:53:00.590Z,9.52
2022-07-27T05:55:27.260Z,9.02
2022-07-27T05:57:53.660Z,8.65
2022-07-27T06:00:20.280Z,10.00
2022-07-27T06:02:46.701Z,11.32
2022-07-27T06:05:15.988Z,12.90
2022-07-27T06:07:59.247Z,12.40
2022-07-27T06:10:27.944Z,11.75
2022-07-27T06:12:54.667Z,11.90
2022-07-27T06:15:21.244Z,11.73
2022-07-27T06:17:49.405Z,11.73
2022-07-27T06:20:16.031Z,10.68
2022-07-27T06:22:54.447Z,10.60
2022-07-27T06:25:22.072Z,10.35
2022-07-27T06:27:49.162Z,10.90
2022-07-27T06:30:17.254Z,10.02
2022-07-27T06:32:44.046Z,9.63
2022-07-27T06:35:12.614Z,9.48
2022-07-27T06:37:43.950Z,9.43
2022-07-27T06:40:13.264Z,9.10
2022-07-27T06:42:40.873Z,9.38
2022-07-27T06:45:08.315Z,9.85
2022-07-27T06:47:34.762Z,9.43
2022-07-27T06:50:01.402Z,10.38
2022-07-27T06:52:27.981Z,9.38
2022-07-27T06:54:54.444Z,9.75
2022-07-27T06:57:20.929Z,9.05
2022-07-27T06:59:47.468Z,9.10
2022-07-27T07:02:13.939Z,9.25
2022-07-27T07:04:40.393Z,8.30
2022-07-27T07:07:07.515Z,8.27
2022-07-27T07:09:34.609Z,8.30
2022-07-27T07:12:02.382Z,8.32
2022-07-27T07:14:29.211Z,8.80
2022-07-27T07:16:55.647Z,8.55
2022-07-27T07:19:22.343Z,8.60
2022-07-27T07:21:49.257Z,8.57
2022-07-27T07:24:15.741Z,8.13
2022-07-27T07:26:42.144Z,8.35
2022-07-27T07:29:09.143Z,8.70
2022-07-27T07:31:36.432Z,8.35
2022-07-27T07:34:03.081Z,8.90
2022-07-27T07:36:29.724Z,9.05
2022-07-27T07:38:56.190Z,8.15
2022-07-27T07:41:23.718Z,8.18
2022-07-27T07:43:50.462Z,8.20
2022-07-27T07:46:17.042Z,8.55
2022-07-27T07:48:44.120Z,8.20
2022-07-27T07:51:11.700Z,8.23
2022-07-27T07:53:41.657Z,8.52
2022-07-27T07:56:08.658Z,8.30
2022-07-27T07:58:35.275Z,7.88
2022-07-27T08:01:01.730Z,7.70
2022-07-27T08:03:28.261Z,8.02
2022-07-27T08:05:54.785Z,8.43
2022-07-27T08:08:21.295Z,7.57
2022-07-27T08:13:22.296Z,8.77
2022-07-27T08:15:50.159Z,8.00
2022-07-27T08:18:16.630Z,7.97
2022-07-27T08:20:43.155Z,8.30
2022-07-27T08:23:09.909Z,8.88
2022-07-27T08:25:39.193Z,8.23
2022-07-27T08:28:06.347Z,8.93
2022-07-27T08:30:34.663Z,8.98
2022-07-27T08:33:03.572Z,8.20
2022-07-27T08:35:32.387Z,7.68
2022-07-27T08:38:00.306Z,8.27
2022-07-27T08:40:44.989Z,8.35
2022-07-27T08:43:18.885Z,8.05
2022-07-27T08:45:57.774Z,8.95
2022-07-27T08:48:25.976Z,9.20
2022-07-27T08:50:53.323Z,8.85
2022-07-27T08:53:22.074Z,8.95
2022-07-27T08:55:49.444Z,9.15
2022-07-27T08:58:16.035Z,8.68
2022-07-27T09:00:45.999Z,8.38
2022-07-27T09:03:19.133Z,8.32
2022-07-27T09:05:55.280Z,8.23
2022-07-27T09:08:30.466Z,8.80
2022-07-27T09:10:59.368Z,8.50
2022-07-27T09:13:31.247Z,7.80
2022-07-27T09:16:18.447Z,8.27
2022-07-27T09:18:45.731Z,8.50
2022-07-27T09:21:20.977Z,8.52
2022-07-27T09:23:53.113Z,8.07
2022-07-27T09:26:33.939Z,8.50
2022-07-27T09:29:06.681Z,8.10
2022-07-27T09:31:50.641Z,8.30
2022-07-27T09:34:28.719Z,8.25
2022-07-27T09:36:57.631Z,8.40
2022-07-27T09:39:26.615Z,8.40
2022-07-27T09:42:01.356Z,8.85
2022-07-27T09:44:42.321Z,9.20
2022-07-27T09:47:40.098Z,9.02
2022-07-27T09:50:21.263Z,9.07
2022-07-27T09:52:47.789Z,8.93
2022-07-27T09:55:14.379Z,9.20
2022-07-27T09:57:58.843Z,9.45
2022-07-27T10:00:26.718Z,9.30
2022-07-27T10:02:53.822Z,8.98
2022-07-27T10:05:23.606Z,8.45
2022-07-27T10:07:52.668Z,9.18
2022-07-27T10:10:21.458Z,9.27
2022-07-27T10:12:54.003Z,9.10
2022-07-27T10:15:21.533Z,9.63
2022-07-27T10:17:53.450Z,8.82
2022-07-27T10:20:19.931Z,9.10
2022-07-27T10:22:58.520Z,8.90
2022-07-27T10:25:26.932Z,8.90
2022-07-27T10:28:10.875Z,8.57
2022-07-27T10:30:39.077Z,8.68
2022-07-27T10:33:37.809Z,9.07
2022-07-27T10:36:04.975Z,8.20
2022-07-27T10:38:52.172Z,8.63
2022-07-27T10:41:25.568Z,8.30
2022-07-27T10:44:23.721Z,8.65
2022-07-27T10:46:54.283Z,8.52
2022-07-27T10:49:23.023Z,8.50
2022-07-27T10:51:53.151Z,8.90
2022-07-27T10:56:51.504Z,8.63
2022-07-27T10:59:58.138Z,8.35
2022-07-27T11:02:38.839Z,8.40
2022-07-27T11:05:05.635Z,8.60
2022-07-27T11:07:42.257Z,8.50
2022-07-27T11:10:12.887Z,9.02
2022-07-27T11:12:41.911Z,8.25
2022-07-27T11:15:09.217Z,8.98
2022-07-27T11:20:23.889Z,8.70
2022-07-27T11:25:40.104Z,8.27
2022-07-27T11:28:10.147Z,8.68
2022-07-27T11:33:04.950Z,8.20
2022-07-27T11:35:31.470Z,8.73
2022-07-27T11:38:03.870Z,8.65
2022-07-27T11:41:12.678Z,8.70
2022-07-27T11:43:33.496Z,8.40
2022-07-27T11:46:23.854Z,8.40
2022-07-27T11:49:10.225Z,8.15
2022-07-27T11:51:48.564Z,8.30
2022-07-27T11:54:20.353Z,8.50
2022-07-27T11:56:50.235Z,8.38
2022-07-27T11:59:28.056Z,8.60
2022-07-27T12:02:01.611Z,8.48
2022-07-27T12:04:33.193Z,9.10
2022-07-27T12:07:10.553Z,8.68
2022-07-27T12:09:43.928Z,8.80
2022-07-27T12:12:10.747Z,8.80
2022-07-27T12:14:39.431Z,9.43
2022-07-27T12:17:19.676Z,8.65
2022-07-27T12:20:03.553Z,9.35
2022-07-27T12:22:34.565Z,9.30
2022-07-27T12:25:12.402Z,9.13
2022-07-27T12:28:06.957Z,9.25
2022-07-27T12:30:40.703Z,7.97
2022-07-27T12:33:24.443Z,8.70
2022-07-27T12:35:51.084Z,8.77
2022-07-27T12:38:17.782Z,8.75
2022-07-27T12:40:50.800Z,8.52
2022-07-27T12:43:20.044Z,8.35
2022-07-27T12:45:48.421Z,8.20
2022-07-27T12:48:17.668Z,9.10
2022-07-27T12:50:46.713Z,8.37
2022-07-27T12:53:15.020Z,8.43
2022-07-27T12:55:43.705Z,8.35
2022-07-27T12:58:11.724Z,8.70
2022-07-27T13:00:38.305Z,8.85
2022-07-27T13:03:06.251Z,8.80
2022-07-27T13:05:34.559Z,9.30
2022-07-27T13:08:03.237Z,8.63
2022-07-27T13:10:29.757Z,8.48
2022-07-27T13:12:56.749Z,8.60
2022-07-27T13:15:23.170Z,8.70
2022-07-27T13:17:49.731Z,8.63
2022-07-27T13:20:17.527Z,8.40
2022-07-27T13:22:44.956Z,8.73
2022-07-27T13:25:16.086Z,8.25
2022-07-27T13:27:43.988Z,8.13
2022-07-27T13:30:11.657Z,8.38
2022-07-27T13:32:39.406Z,8.43
2022-07-27T13:35:07.600Z,8.50
2022-07-27T13:37:34.081Z,8.60
2022-07-27T13:40:00.691Z,8.98
2022-07-27T13:42:27.155Z,8.40
2022-07-27T13:45:11.024Z,9.20
2022-07-27T13:47:39.901Z,8.18
2022-07-27T13:50:15.168Z,7.80
2022-07-27T13:52:44.841Z,8.10
2022-07-27T13:55:13.143Z,8.18
2022-07-27T13:57:39.588Z,8.13
2022-07-27T14:00:06.844Z,8.90
2022-07-27T14:02:33.324Z,8.23
2022-07-27T14:05:01.237Z,8.40
2022-07-27T14:07:29.579Z,8.73
2022-07-27T14:10:14.623Z,8.10
2022-07-27T14:12:41.161Z,8.60
2022-07-27T14:15:08.141Z,8.60
2022-07-27T14:17:34.816Z,8.23
2022-07-27T14:20:01.303Z,8.48
2022-07-27T14:22:27.818Z,8.50
2022-07-27T14:24:54.881Z,8.40
2022-07-27T14:27:21.366Z,8.73
2022-07-27T14:29:47.886Z,8.90
2022-07-27T14:32:15.717Z,8.70
2022-07-27T14:34:44.150Z,7.97
2022-07-27T14:37:10.795Z,8.25
2022-07-27T14:39:37.223Z,8.13
2022-07-27T14:42:05.909Z,8.23
2022-07-27T14:44:34.780Z,8.05
2022-07-27T14:47:01.440Z,8.30
2022-07-27T14:49:28.154Z,8.20
2022-07-27T14:51:54.711Z,8.65
2022-07-27T14:54:21.299Z,8.20
2022-07-27T14:56:48.365Z,8.20
2022-07-27T14:59:15.271Z,8.07
2022-07-27T15:01:42.183Z,8.32
2022-07-27T15:04:08.882Z,8.27
2022-07-27T15:06:39.040Z,7.88
2022-07-27T15:09:06.386Z,7.60
2022-07-27T15:11:33.042Z,7.80
2022-07-27T15:13:59.480Z,7.82
2022-07-27T15:16:26.070Z,7.68
2022-07-27T15:18:52.877Z,8.20
2022-07-27T15:21:19.555Z,7.88
2022-07-27T15:23:46.164Z,7.65
2022-07-27T15:26:13.296Z,8.02
2022-07-27T15:28:40.579Z,7.80
2022-07-27T15:31:07.057Z,7.90
2022-07-27T15:33:33.665Z,7.70
2022-07-27T15:36:00.274Z,7.55
2022-07-27T15:38:26.789Z,8.70
2022-07-27T15:40:53.351Z,8.20
2022-07-27T15:43:19.979Z,8.52
2022-07-27T15:45:51.062Z,8.30
2022-07-27T15:48:20.065Z,7.38
2022-07-27T15:50:49.881Z,7.40
2022-07-27T15:53:18.491Z,7.22
2022-07-27T15:55:45.442Z,7.70
2022-07-27T15:58:17.663Z,8.00
2022-07-27T16:00:45.054Z,8.32
2022-07-27T16:03:12.892Z,7.97
2022-07-27T16:05:42.769Z,7.78
2022-07-27T16:08:10.155Z,7.70
2022-07-27T16:10:38.467Z,7.45
2022-07-27T16:13:05.936Z,7.93
2022-07-27T16:15:52.166Z,7.65
2022-07-27T16:18:18.709Z,7.43
2022-07-27T16:20:45.404Z,7.88
2022-07-27T16:23:18.713Z,7.55
2022-07-27T16:26:04.109Z,7.80
2022-07-27T16:28:33.112Z,8.10
2022-07-27T16:30:59.654Z,8.00
2022-07-27T16:33:26.211Z,8.27
2022-07-27T16:35:52.838Z,8.48
2022-07-27T16:38:19.527Z,8.00
2022-07-27T16:40:46.165Z,8.25
2022-07-27T16:43:12.579Z,8.07
2022-07-27T16:45:39.389Z,8.40
2022-07-27T16:48:06.266Z,8.27
2022-07-27T16:50:32.924Z,8.27
2022-07-27T16:53:01.273Z,8.20
2022-07-27T16:55:27.988Z,8.30
2022-07-27T16:57:55.841Z,8.50
2022-07-27T17:00:22.301Z,8.73
2022-07-27T17:02:48.763Z,8.05
2022-07-27T17:05:15.241Z,8.40
2022-07-27T17:07:42.810Z,8.50
2022-07-27T17:10:10.028Z,8.20
2022-07-27T17:12:38.758Z,8.15
2022-07-27T17:15:07.048Z,8.57
2022-07-27T17:17:34.340Z,8.48
2022-07-27T17:20:00.894Z,8.23
2022-07-27T17:22:27.557Z,8.20
2022-07-27T17:24:54.035Z,8.00
2022-07-27T17:27:20.933Z,8.27
2022-07-27T17:29:47.522Z,7.97
2022-07-27T17:32:13.982Z,8.15
2022-07-27T17:34:41.641Z,8.35
2022-07-27T17:37:08.191Z,8.43
2022-07-27T17:39:35.482Z,8.43
2022-07-27T17:42:02.119Z,8.20
2022-07-27T17:44:28.656Z,8.52
2022-07-27T17:46:55.241Z,7.97
2022-07-27T17:49:21.846Z,9.35
2022-07-27T17:51:48.314Z,9.32
2022-07-27T17:54:14.787Z,9.13
2022-07-27T17:56:41.749Z,8.55
2022-07-27T17:59:34.593Z,8.23
2022-07-27T18:01:56.460Z,8.40
2022-07-27T18:04:23.132Z,8.40
2022-07-27T18:06:49.785Z,8.82
2022-07-27T18:09:17.161Z,8.30
2022-07-27T18:11:43.913Z,8.10
2022-07-27T18:14:10.589Z,8.43
2022-07-27T18:16:40.614Z,8.70
2022-07-27T18:21:34.763Z,8.50
2022-07-27T18:24:01.354Z,8.55
2022-07-27T18:26:27.820Z,7.65
2022-07-27T18:28:55.052Z,7.95
2022-07-27T18:31:21.811Z,8.35
2022-07-27T18:33:50.639Z,8.52
2022-07-27T18:36:19.451Z,8.13
2022-07-27T18:38:46.131Z,8.05
2022-07-27T18:41:19.851Z,7.47
2022-07-27T18:43:53.206Z,8.20
2022-07-27T18:46:21.574Z,7.75
2022-07-27T18:48:48.895Z,7.80
2022-07-27T18:51:16.951Z,7.90
2022-07-27T18:53:46.497Z,8.15
2022-07-27T18:56:12.928Z,8.55
2022-07-27T18:58:40.576Z,7.80
2022-07-27T19:01:09.286Z,8.15
2022-07-27T19:03:37.225Z,7.68
2022-07-27T19:06:06.404Z,8.13
2022-07-27T19:08:35.246Z,8.63
2022-07-27T19:11:01.673Z,8.20
2022-07-27T19:13:28.165Z,7.80
2022-07-27T19:15:54.586Z,7.97
2022-07-27T19:18:23.500Z,7.90
2022-07-27T19:20:50.468Z,8.77
2022-07-27T19:23:17.040Z,7.93
2022-07-27T19:25:45.121Z,7.97
2022-07-27T19:28:16.018Z,8.30
2022-07-27T19:30:42.635Z,8.25
2022-07-27T19:33:09.363Z,8.60
2022-07-27T19:35:36.013Z,8.45
2022-07-27T19:38:03.701Z,8.10
2022-07-27T19:40:43.973Z,8.23
2022-07-27T19:43:11.476Z,8.27
2022-07-27T19:45:38.176Z,8.38
2022-07-27T19:48:05.907Z,8.43
2022-07-27T19:50:32.816Z,8.68
2022-07-27T19:52:59.500Z,8.18
2022-07-27T19:55:26.094Z,8.60
2022-07-27T19:57:52.701Z,8.52
2022-07-27T20:00:19.522Z,9.63
2022-07-27T20:02:47.742Z,8.65
2022-07-27T20:05:14.664Z,8.65
2022-07-27T20:07:41.541Z,8.30
2022-07-27T20:10:08.318Z,7.72
2022-07-27T20:12:34.817Z,8.15
2022-07-27T20:15:01.611Z,8.00
2022-07-27T20:17:28.020Z,8.23
2022-07-27T20:19:54.739Z,8.27
2022-07-27T20:22:21.251Z,8.02
2022-07-27T20:24:47.683Z,8.00
2022-07-27T20:27:14.219Z,8.25
2022-07-27T20:29:40.678Z,7.88
2022-07-27T20:32:07.700Z,8.52
2022-07-27T20:34:34.305Z,7.97
2022-07-27T20:37:00.858Z,7.70
2022-07-27T20:39:27.267Z,7.90
2022-07-27T20:41:53.779Z,8.25
2022-07-27T20:44:21.044Z,9.80
2022-07-27T20:46:47.777Z,9.90
2022-07-27T20:49:14.713Z,10.80
2022-07-27T20:51:42.076Z,10.52
2022-07-27T20:54:08.578Z,10.18
2022-07-27T20:56:35.047Z,10.10
2022-07-27T20:59:01.755Z,9.75
2022-07-27T21:01:29.818Z,9.23
2022-07-27T21:03:56.336Z,9.52
2022-07-27T21:06:22.948Z,8.93
2022-07-27T21:08:49.631Z,9.80
2022-07-27T21:11:16.249Z,10.13
2022-07-27T21:13:42.751Z,10.20
2022-07-27T21:16:09.205Z,9.75
2022-07-27T21:18:35.920Z,9.60
2022-07-27T21:21:02.721Z,9.48
2022-07-27T21:23:47.867Z,9.38
2022-07-27T21:26:16.237Z,9.50
2022-07-27T21:28:45.251Z,9.55
2022-07-27T21:31:11.732Z,9.38
2022-07-27T21:33:39.993Z,9.40
2022-07-27T21:36:07.202Z,9.43
2022-07-27T21:38:33.818Z,8.98
2022-07-27T21:41:00.290Z,8.55
2022-07-27T21:43:26.780Z,9.38
2022-07-27T21:45:53.308Z,8.98
2022-07-27T21:48:19.921Z,8.88
2022-07-27T21:50:46.436Z,8.13
2022-07-27T21:53:12.860Z,8.75
2022-07-27T21:55:40.822Z,8.52
2022-07-27T21:58:09.976Z,8.40
2022-07-27T22:00:36.447Z,8.55
2022-07-27T22:03:02.861Z,8.73
2022-07-27T22:05:29.422Z,7.95
2022-07-27T22:07:57.490Z,7.90
2022-07-27T22:10:23.997Z,7.70
2022-07-27T22:12:50.721Z,7.97
2022-07-27T22:15:17.426Z,7.60
2022-07-27T22:17:46.133Z,7.90
2022-07-27T22:20:18.282Z,7.70
2022-07-27T22:22:44.932Z,7.30
2022-07-27T22:25:11.315Z,7.75
2022-07-27T22:27:38.077Z,7.70
2022-07-27T22:30:05.564Z,7.65
2022-07-27T22:32:31.994Z,8.18
2022-07-27T22:34:58.539Z,7.63
2022-07-27T22:37:25.557Z,7.63
2022-07-27T22:39:52.066Z,7.75
2022-07-27T22:42:18.816Z,7.15
2022-07-27T22:44:45.361Z,7.53
2022-07-27T22:47:12.112Z,7.00
2022-07-27T22:49:38.854Z,7.25
2022-07-27T22:52:05.841Z,7.68
2022-07-27T22:54:34.612Z,7.60
2022-07-27T22:57:01.152Z,8.50
2022-07-27T22:59:27.629Z,8.15
2022-07-27T23:01:54.257Z,7.63
2022-07-27T23:04:21.097Z,8.20
2022-07-27T23:06:47.681Z,8.20
2022-07-27T23:09:14.745Z,8.38
2022-07-27T23:11:41.542Z,8.45
2022-07-27T23:14:07.990Z,7.93
2022-07-27T23:16:35.042Z,7.97
2022-07-27T23:19:01.636Z,9.00
2022-07-27T23:21:28.133Z,8.20
2022-07-27T23:23:54.541Z,8.15
2022-07-27T23:26:22.966Z,8.15
2022-07-27T23:28:52.429Z,7.80
2022-07-27T23:31:18.995Z,8.20
2022-07-27T23:33:45.511Z,8.48
2022-07-27T23:36:11.935Z,8.40
2022-07-27T23:38:38.405Z,8.68
2022-07-27T23:41:04.888Z,8.70
2022-07-27T23:43:31.448Z,8.57
2022-07-27T23:45:57.886Z,8.80
2022-07-27T23:48:25.156Z,8.45
2022-07-27T23:50:51.991Z,8.70
2022-07-27T23:53:18.593Z,8.95
2022-07-27T23:55:45.202Z,8.45
2022-07-27T23:58:11.757Z,10.45
